Main page
METAR-TAF:

METAR-TAF

Airports :

Blackpool, England

Blackpool Airport

latitude: 53-46N, longitude: 003-02W, elevation: 10 m

Current weather observation

The report was made 6 hours and 43 minutes ago, at 19:50 UTC
Wind 16 kt from the Northwest
Temperature 17°C
Humidity 88%
Pressure 1012 hPa
Visibility 10 km or more
Broken clouds at a height of 2700 ft

METAR: EGNH 231950Z 32016KT 9999 BKN027 17/15 Q1012

Time: 03:33 (02:33 UTC)

Forecast

The report was made 9 hours and 37 minutes ago, at 16:56 UTC
Forecast valid from 23 at 18 UTC to 23 at 20 UTC
Wind 12 kt from the West/Northwest
Visibility 10 km or more
Few clouds at a height of 1200 ft
Scattered clouds at a height of 4000 ft
Becoming
from 23 at 18 UTC to 23 at 20 UTC
Wind 16 kt from the North
Temporary
from 23 at 18 UTC to 23 at 20 UTC
Visibility: 6000 m
Broken clouds at a height of 1200 ft
rain

TAF: EGNH 231656Z 2318/2320 29012KT 9999 FEW012 SCT040 BECMG 2318/2320 35016KT TEMPO 2318/2320 6000 RA BKN012

Weather observations and forecasts of more than 4000 airports (METAR and TAF reports).

The available stations are represented by yellow and red dots on the map.

Hover mouse over dot to see the name of the station.

Then click to see weather observations and forecasts.

To change the map : click on the green buttons with a black cross to zoom in, on the green button with a dash to zoom out, or on the green arrows for adjacent maps.


METAR-TAF: